パリ/シャルル・ド・ゴール の空港の天気 - METARとTAF

シャルル・ド・ゴール国際空港(パリ) ( LFPG / CDG ) - フランス Paris
飛行場実況気象(Metar)
観測時間02/17 15:30 CET (02/17 14:30 UTC)
風向・風速南 7m/s
視程10km以上
天気現象
なし
気温17℃
湿度29%
気圧1019hPa
METARLFPG 171430Z 19014KT CAVOK 17/M01 Q1019 NOSIG
過去の天気等 Google飛行場航空写真 Wunderground天気予報

過去48時間のMETAR

飛行場予報(TAF)
発表時間: 2/17 12:00 CET (2/17 11:00 UTC)
予報対象時間: 17日13時 CET ~ 18日19時 CET
風向・風速南 5m/s
視程10km以上
なし
17日19時 CET ~ 17日21時 CET に徐々に
風向・風速南南東 3m/s
18日4時 CET ~ 18日7時 CET に 確率 30% で一時的に
視程4000m
天気現象もや
18日11時 CET ~ 18日13時 CET に徐々に
風向・風速南南西 5m/s
TAF LFPG 171100Z 1712/1818 19010KT CAVOK TX16/1714Z TN03/1806Z
BECMG 1718/1720 16005KT
PROB30 TEMPO 1803/1806 4000 BR
BECMG 1810/1812 20010KT